createdAt,value
2022-11-26T00:04:46.109Z,7.75
2022-11-26T00:09:51.362Z,7.66
2022-11-26T00:14:54.374Z,7.78
2022-11-26T00:19:56.855Z,7.46
2022-11-26T00:24:59.438Z,7.48
2022-11-26T00:30:01.688Z,7.34
2022-11-26T00:35:04.204Z,7.74
2022-11-26T00:40:07.220Z,7.78
2022-11-26T00:45:36.452Z,7.60
2022-11-26T00:50:42.932Z,7.18
2022-11-26T00:55:48.260Z,7.38
2022-11-26T01:00:51.406Z,7.22
2022-11-26T01:05:57.653Z,7.33
2022-11-26T01:11:01.422Z,7.50
2022-11-26T01:16:16.657Z,7.47
2022-11-26T01:21:19.916Z,7.50
2022-11-26T01:26:25.067Z,7.27
2022-11-26T01:31:29.263Z,7.53
2022-11-26T01:36:34.469Z,7.53
2022-11-26T01:41:55.285Z,7.24
2022-11-26T01:46:59.172Z,7.28
2022-11-26T01:52:19.379Z,7.43
2022-11-26T01:57:25.873Z,7.26
2022-11-26T02:02:30.360Z,7.05
2022-11-26T02:07:32.951Z,6.93
2022-11-26T02:12:35.305Z,6.90
2022-11-26T02:17:43.277Z,7.07
2022-11-26T02:22:59.017Z,7.03
2022-11-26T02:28:27.291Z,6.90
2022-11-26T02:33:40.791Z,6.98
2022-11-26T02:38:43.357Z,6.80
2022-11-26T02:43:46.571Z,6.84
2022-11-26T02:48:52.577Z,6.69
2022-11-26T02:53:56.111Z,6.72
2022-11-26T02:58:59.881Z,6.37
2022-11-26T03:04:09.069Z,6.79
2022-11-26T03:09:11.372Z,6.59
2022-11-26T03:14:13.751Z,6.61
2022-11-26T03:19:15.979Z,6.92
2022-11-26T03:24:18.318Z,6.93
2022-11-26T03:29:20.714Z,6.60
2022-11-26T03:34:22.994Z,6.76
2022-11-26T03:39:25.423Z,6.57
2022-11-26T03:44:27.647Z,6.35
2022-11-26T03:49:30.103Z,6.42
2022-11-26T03:54:32.388Z,6.21
2022-11-26T03:59:34.668Z,6.48
2022-11-26T04:04:37.489Z,6.16
2022-11-26T04:09:40.146Z,6.34
2022-11-26T04:14:42.421Z,6.32
2022-11-26T04:19:44.643Z,6.17
2022-11-26T04:24:46.845Z,6.09
2022-11-26T04:29:49.051Z,6.31
2022-11-26T04:34:51.362Z,6.02
2022-11-26T04:39:53.579Z,6.20
2022-11-26T04:44:55.899Z,6.27
2022-11-26T04:49:58.134Z,6.21
2022-11-26T04:55:00.301Z,6.20
2022-11-26T05:00:02.673Z,6.32
2022-11-26T05:05:05.241Z,6.27
2022-11-26T05:10:09.356Z,6.33
2022-11-26T05:15:12.169Z,6.36
2022-11-26T05:20:15.488Z,6.23
2022-11-26T05:25:18.050Z,6.12
2022-11-26T05:30:20.670Z,6.09
2022-11-26T05:35:23.318Z,6.25
2022-11-26T05:40:25.712Z,6.01
2022-11-26T05:45:28.078Z,6.19
2022-11-26T05:50:30.441Z,6.53
2022-11-26T05:55:33.001Z,6.56
2022-11-26T06:00:35.253Z,6.73
2022-11-26T06:05:37.594Z,6.73
2022-11-26T06:10:42.892Z,7.01
2022-11-26T06:15:45.173Z,7.11
2022-11-26T06:20:47.387Z,7.29
2022-11-26T06:25:49.621Z,7.47
2022-11-26T06:30:52.001Z,7.50
2022-11-26T06:35:58.550Z,7.63
2022-11-26T06:41:06.515Z,7.47
2022-11-26T06:46:10.666Z,7.63
2022-11-26T06:51:15.920Z,7.63
2022-11-26T06:56:19.332Z,7.63
2022-11-26T07:01:24.713Z,7.77
2022-11-26T07:06:29.928Z,7.78
2022-11-26T07:11:32.714Z,7.71
2022-11-26T07:16:35.762Z,7.89
2022-11-26T07:21:38.517Z,8.01
2022-11-26T07:26:40.957Z,8.27
2022-11-26T07:31:43.367Z,8.57
2022-11-26T07:36:45.686Z,8.82
2022-11-26T07:41:47.911Z,9.05
2022-11-26T07:46:50.344Z,9.30
2022-11-26T07:51:52.576Z,9.68
2022-11-26T07:56:54.912Z,9.57
2022-11-26T08:01:57.632Z,9.80
2022-11-26T08:07:00.081Z,9.83
2022-11-26T08:12:02.496Z,10.02
2022-11-26T08:17:04.779Z,10.42
2022-11-26T08:22:07.156Z,10.45
2022-11-26T08:27:09.499Z,10.85
2022-11-26T08:32:11.728Z,10.86
2022-11-26T08:37:14.098Z,10.85
2022-11-26T08:42:16.449Z,11.29
2022-11-26T08:47:18.736Z,11.37
2022-11-26T08:52:21.012Z,11.62
2022-11-26T08:57:23.207Z,11.60
2022-11-26T09:02:25.360Z,11.71
2022-11-26T09:07:28.672Z,12.10
2022-11-26T09:12:30.867Z,12.13
2022-11-26T09:17:32.992Z,12.05
2022-11-26T09:22:35.887Z,12.10
2022-11-26T09:27:38.116Z,11.91
2022-11-26T09:32:40.328Z,12.19
2022-11-26T09:37:46.051Z,12.26
2022-11-26T09:43:06.083Z,12.55
2022-11-26T09:48:15.403Z,12.60
2022-11-26T09:53:25.840Z,12.62
2022-11-26T09:58:45.661Z,12.72
2022-11-26T10:03:48.372Z,12.61
2022-11-26T10:14:40.770Z,12.90
2022-11-26T10:20:09.709Z,12.79
2022-11-26T10:25:25.192Z,12.94
2022-11-26T10:30:30.602Z,13.05
2022-11-26T10:35:33.642Z,12.74
2022-11-26T10:40:36.185Z,13.14
2022-11-26T10:45:40.023Z,13.15
2022-11-26T10:50:48.067Z,13.19
2022-11-26T10:55:52.543Z,13.32
2022-11-26T11:00:59.947Z,13.20
2022-11-26T11:06:22.360Z,13.57
2022-11-26T11:11:30.690Z,13.72
2022-11-26T11:16:41.279Z,13.82
2022-11-26T11:21:48.161Z,13.92
2022-11-26T11:26:55.771Z,13.77
2022-11-26T11:31:58.155Z,13.89
2022-11-26T11:37:05.368Z,14.10
2022-11-26T11:42:22.540Z,13.80
2022-11-26T11:47:38.874Z,14.10
2022-11-26T11:53:15.988Z,14.37
2022-11-26T11:58:47.267Z,14.55
2022-11-26T12:04:05.084Z,14.71
2022-11-26T12:09:41.373Z,14.75
2022-11-26T12:14:48.747Z,14.55
2022-11-26T12:19:50.804Z,14.58
2022-11-26T12:25:30.115Z,14.54
2022-11-26T12:30:52.005Z,14.87
2022-11-26T12:36:00.719Z,14.80
2022-11-26T12:41:08.159Z,14.95
2022-11-26T12:46:20.473Z,15.09
2022-11-26T12:51:37.742Z,15.11
2022-11-26T12:56:50.981Z,15.42
2022-11-26T13:01:53.295Z,15.70
2022-11-26T13:07:04.267Z,15.88
2022-11-26T13:12:15.338Z,16.11
2022-11-26T13:17:21.812Z,16.07
2022-11-26T13:22:41.619Z,16.31
2022-11-26T13:27:49.871Z,16.57
2022-11-26T13:33:13.520Z,16.72
2022-11-26T13:38:23.866Z,16.77
2022-11-26T13:43:26.038Z,16.97
2022-11-26T13:48:44.918Z,16.78
2022-11-26T13:54:10.278Z,16.82
2022-11-26T13:59:25.377Z,17.12
2022-11-26T14:04:30.360Z,17.41
2022-11-26T14:09:50.528Z,17.72
2022-11-26T14:14:53.146Z,17.89
2022-11-26T14:19:59.032Z,17.47
2022-11-26T14:25:09.628Z,17.01
2022-11-26T14:30:23.312Z,17.18
2022-11-26T14:35:33.924Z,17.10
2022-11-26T14:40:38.897Z,16.79
2022-11-26T14:45:43.257Z,16.31
2022-11-26T14:50:45.737Z,15.90
2022-11-26T14:55:49.496Z,15.67
2022-11-26T15:01:29.861Z,15.31
2022-11-26T15:06:38.630Z,15.15
2022-11-26T15:11:50.793Z,14.91
2022-11-26T15:17:00.939Z,14.66
2022-11-26T15:22:28.720Z,14.29
2022-11-26T15:27:41.892Z,14.05
2022-11-26T15:32:44.397Z,13.87
2022-11-26T15:37:46.625Z,13.72
2022-11-26T15:42:51.468Z,13.40
2022-11-26T15:47:55.356Z,13.04
2022-11-26T15:53:01.943Z,13.24
2022-11-26T15:58:09.291Z,13.01
2022-11-26T16:03:36.202Z,12.65
2022-11-26T16:08:39.818Z,12.65
2022-11-26T16:13:42.079Z,12.54
2022-11-26T16:18:49.052Z,12.30
2022-11-26T16:24:18.277Z,12.29
2022-11-26T16:29:20.427Z,12.37
2022-11-26T16:34:23.352Z,12.15
2022-11-26T16:39:30.059Z,12.20
2022-11-26T16:44:32.842Z,12.17
2022-11-26T16:49:35.217Z,12.03
2022-11-26T16:54:37.862Z,11.93
2022-11-26T16:59:41.094Z,11.89
2022-11-26T17:04:44.089Z,12.34
2022-11-26T17:09:46.515Z,12.43
2022-11-26T17:14:49.550Z,12.44
2022-11-26T17:19:51.973Z,12.47
2022-11-26T17:24:54.236Z,12.21
2022-11-26T17:29:56.703Z,12.39
2022-11-26T17:34:59.060Z,12.40
2022-11-26T17:40:01.319Z,12.41
2022-11-26T17:45:03.971Z,12.30
2022-11-26T17:50:08.396Z,12.49
2022-11-26T17:55:12.038Z,12.42
2022-11-26T18:00:21.027Z,12.53
2022-11-26T18:05:23.932Z,12.39
2022-11-26T18:10:26.268Z,12.32
2022-11-26T18:15:28.612Z,12.19
2022-11-26T18:20:31.513Z,12.08
2022-11-26T18:25:35.234Z,12.27
2022-11-26T18:30:38.067Z,12.13
2022-11-26T18:35:42.507Z,12.02
2022-11-26T18:40:44.905Z,11.93
2022-11-26T18:45:47.786Z,11.96
2022-11-26T18:50:57.704Z,12.03
2022-11-26T18:56:00.058Z,11.87
2022-11-26T19:01:02.853Z,11.90
2022-11-26T19:06:06.232Z,11.68
2022-11-26T19:11:14.034Z,11.60
2022-11-26T19:16:18.936Z,11.61
2022-11-26T19:21:29.642Z,11.65
2022-11-26T19:26:32.230Z,11.49
2022-11-26T19:31:36.449Z,11.59
2022-11-26T19:36:38.943Z,11.44
2022-11-26T19:41:41.226Z,11.53
2022-11-26T19:46:43.424Z,11.47
2022-11-26T19:51:45.785Z,11.45
2022-11-26T19:56:48.792Z,11.53
2022-11-26T20:01:51.240Z,11.51
2022-11-26T20:06:54.202Z,11.49
2022-11-26T20:11:56.389Z,11.42
2022-11-26T20:17:01.179Z,11.28
2022-11-26T20:22:04.192Z,11.35
2022-11-26T20:27:06.524Z,11.41
2022-11-26T20:32:09.005Z,11.35
2022-11-26T20:37:11.377Z,11.32
2022-11-26T20:42:15.834Z,11.48
2022-11-26T20:47:18.102Z,11.46
2022-11-26T20:52:22.106Z,11.13
2022-11-26T20:57:24.302Z,11.33
2022-11-26T21:02:28.199Z,11.23
2022-11-26T21:07:30.533Z,11.19
2022-11-26T21:12:32.965Z,11.17
2022-11-26T21:17:35.453Z,11.08
2022-11-26T21:22:38.609Z,11.00
2022-11-26T21:27:40.828Z,10.91
2022-11-26T21:32:43.218Z,10.98
2022-11-26T21:37:46.065Z,10.74
2022-11-26T21:42:48.286Z,10.97
2022-11-26T21:47:53.049Z,10.99
2022-11-26T21:52:55.268Z,11.02
2022-11-26T21:57:57.453Z,10.73
2022-11-26T22:02:59.855Z,10.62
2022-11-26T22:08:02.180Z,10.68
2022-11-26T22:13:04.411Z,10.81
2022-11-26T22:18:06.673Z,10.74
2022-11-26T22:23:08.888Z,10.89
2022-11-26T22:28:11.368Z,10.85
2022-11-26T22:33:13.603Z,10.83
2022-11-26T22:38:15.887Z,10.71
2022-11-26T22:43:18.183Z,10.67
2022-11-26T22:48:20.591Z,10.71
2022-11-26T22:53:23.636Z,10.67
2022-11-26T22:58:27.371Z,10.70
2022-11-26T23:03:32.243Z,10.85
2022-11-26T23:08:35.737Z,10.61
2022-11-26T23:13:40.003Z,10.50
2022-11-26T23:18:42.753Z,10.65
2022-11-26T23:23:46.135Z,10.66
2022-11-26T23:28:48.527Z,10.64
2022-11-26T23:33:52.345Z,10.56
2022-11-26T23:38:55.268Z,10.53
2022-11-26T23:43:57.851Z,10.68
2022-11-26T23:49:00.144Z,10.52
2022-11-26T23:54:02.469Z,10.62
2022-11-26T23:59:05.437Z,10.64
